Time;durP1;ratioP1;P1;durP2;ratioP2;P2;SDS_P1;SDS_P2;PMS_P1;PMS_P2;Temp;Humidity;BMP_temperature;BMP_pressure;BME280_temperature;BME280_humidity;BME280_pressure;Samples;Min_cycle;Max_cycle;Signal;HPM_P1;HPM_P2
2022/10/21 00:00:56;;;;;;;12.03;9.13;;;13.70;99.90;;;;;;4855975;29;20213;-87
2022/10/21 00:03:24;;;;;;;9.30;8.30;;;13.70;99.90;;;;;;4855988;29;20205;-86
2022/10/21 00:05:51;;;;;;;12.00;9.03;;;13.70;99.90;;;;;;4856110;29;20189;-87
2022/10/21 00:08:18;;;;;;;10.00;8.03;;;13.70;99.90;;;;;;4859768;29;20195;-86
2022/10/21 00:10:44;;;;;;;9.73;8.73;;;13.70;99.90;;;;;;4862606;29;20199;-86
2022/10/21 00:13:18;;;;;;;12.37;9.40;;;13.70;99.90;;;;;;4862364;29;20232;-86
2022/10/21 00:15:44;;;;;;;12.73;9.20;;;13.70;99.90;;;;;;4863090;29;20228;-87
2022/10/21 00:18:10;;;;;;;12.03;9.60;;;13.60;99.90;;;;;;4862269;29;20184;-86
2022/10/21 00:20:40;;;;;;;12.93;9.83;;;13.60;99.90;;;;;;4862712;29;20220;-86
2022/10/21 00:23:06;;;;;;;11.77;8.80;;;13.60;99.90;;;;;;4870293;29;20203;-86
2022/10/21 00:25:32;;;;;;;10.27;9.17;;;13.60;99.90;;;;;;4881205;29;20208;-86
2022/10/21 00:27:57;;;;;;;9.93;8.93;;;13.60;99.90;;;;;;4880890;29;20219;-86
2022/10/21 00:30:23;;;;;;;9.67;8.67;;;13.60;99.90;;;;;;4865625;29;20192;-87
2022/10/21 00:32:49;;;;;;;9.57;8.67;;;13.70;99.90;;;;;;4865318;29;20219;-86
2022/10/21 00:35:15;;;;;;;12.47;9.13;;;13.70;99.90;;;;;;4865798;29;20248;-86
2022/10/21 00:37:41;;;;;;;9.30;8.33;;;13.70;99.90;;;;;;4865180;29;20184;-86
2022/10/21 00:40:07;;;;;;;10.37;9.37;;;13.70;99.90;;;;;;4865333;29;20211;-87
2022/10/21 00:42:38;;;;;;;17.63;9.97;;;13.70;99.90;;;;;;4864518;29;20250;-86
2022/10/21 00:45:04;;;;;;;10.47;9.40;;;13.70;99.90;;;;;;4862091;29;20188;-86
2022/10/21 00:47:36;;;;;;;9.67;8.67;;;13.70;99.90;;;;;;4861989;29;20181;-86
2022/10/21 00:50:03;;;;;;;21.30;9.70;;;13.70;99.90;;;;;;4865318;29;20180;-87
2022/10/21 00:52:32;;;;;;;15.37;9.20;;;13.60;99.90;;;;;;4865390;29;20210;-86
2022/10/21 00:55:01;;;;;;;10.67;9.67;;;13.60;99.90;;;;;;4865046;29;20204;-86
2022/10/21 00:57:29;;;;;;;11.83;9.77;;;13.50;99.90;;;;;;4864485;29;20195;-86
2022/10/21 00:59:59;;;;;;;12.23;9.97;;;13.50;99.90;;;;;;4865014;29;20183;-87
2022/10/21 01:02:27;;;;;;;11.17;9.37;;;13.50;99.90;;;;;;4852844;29;20204;-86
2022/10/21 01:04:56;;;;;;;9.87;8.87;;;13.50;99.90;;;;;;4861877;29;20180;-87
2022/10/21 01:07:22;;;;;;;10.13;9.13;;;13.50;99.90;;;;;;4861658;29;20189;-86
2022/10/21 01:09:48;;;;;;;10.50;9.40;;;13.40;99.90;;;;;;4861986;29;20181;-86
2022/10/21 01:12:31;;;;;;;9.50;8.50;;;13.40;99.90;;;;;;4861904;29;20264;-87
2022/10/21 01:15:09;;;;;;;9.70;8.67;;;13.40;99.90;;;;;;4861888;29;20237;-87
2022/10/21 01:17:52;;;;;;;9.50;8.60;;;13.50;99.90;;;;;;4861388;29;20187;-86
2022/10/21 01:20:36;;;;;;;9.70;8.80;;;13.50;99.90;;;;;;4861424;29;20200;-87
2022/10/21 01:23:20;;;;;;;9.67;8.63;;;13.50;99.90;;;;;;4861626;29;20212;-86
2022/10/21 01:26:07;;;;;;;12.80;9.23;;;13.50;99.90;;;;;;4861946;29;20173;-86
2022/10/21 01:28:51;;;;;;;11.77;9.03;;;13.50;99.90;;;;;;4861461;29;20191;-86
2022/10/21 01:31:53;;;;;;;11.37;9.40;;;13.60;99.90;;;;;;4861454;29;20188;-87
2022/10/21 01:34:32;;;;;;;10.10;9.03;;;13.60;99.90;;;;;;4862470;29;20194;-86
2022/10/21 01:37:12;;;;;;;11.20;8.90;;;13.60;99.90;;;;;;4861123;29;20184;-86
2022/10/21 01:39:57;;;;;;;9.30;8.40;;;13.60;99.90;;;;;;4861278;29;20205;-86
2022/10/21 01:42:39;;;;;;;10.10;8.73;;;13.60;99.90;;;;;;4868283;29;20212;-86
2022/10/21 01:45:20;;;;;;;10.27;8.67;;;13.60;99.90;;;;;;4864300;29;20187;-86
2022/10/21 01:47:52;;;;;;;9.17;8.10;;;13.70;99.90;;;;;;4863847;29;20218;-86
2022/10/21 01:50:28;;;;;;;9.87;8.87;;;13.60;99.90;;;;;;4864342;29;20199;-86
2022/10/21 01:53:05;;;;;;;9.63;8.63;;;13.60;99.90;;;;;;4864250;29;20272;-86
2022/10/21 01:55:31;;;;;;;10.03;9.03;;;13.60;99.90;;;;;;4864377;29;20187;-87
2022/10/21 01:58:02;;;;;;;9.43;8.53;;;13.50;99.90;;;;;;4854241;29;20709;-86
2022/10/21 02:00:29;;;;;;;9.60;8.60;;;13.50;99.90;;;;;;4860936;29;20299;-86
2022/10/21 02:02:56;;;;;;;9.50;8.60;;;13.50;99.90;;;;;;4860836;29;20208;-87
2022/10/21 02:05:27;;;;;;;9.87;8.87;;;13.50;99.90;;;;;;4860908;29;20188;-86
2022/10/21 02:07:54;;;;;;;11.57;9.13;;;13.50;99.90;;;;;;4860643;29;20236;-86
2022/10/21 02:10:22;;;;;;;11.20;8.87;;;13.50;99.90;;;;;;4861554;29;20200;-86
2022/10/21 02:12:51;;;;;;;10.67;8.17;;;13.50;99.90;;;;;;4862903;29;20211;-86
2022/10/21 02:15:18;;;;;;;9.73;8.50;;;13.50;99.90;;;;;;4879363;29;20219;-86
2022/10/21 02:17:53;;;;;;;9.33;8.33;;;13.40;99.90;;;;;;4863649;29;20200;-87
2022/10/21 02:20:23;;;;;;;8.73;7.83;;;13.40;99.90;;;;;;4864019;29;20230;-87
2022/10/21 02:22:49;;;;;;;9.40;8.50;;;13.40;99.90;;;;;;4863688;29;20677;-87
2022/10/21 02:25:27;;;;;;;9.97;9.00;;;13.40;99.90;;;;;;4863630;29;20188;-86
2022/10/21 02:27:54;;;;;;;10.60;9.30;;;13.50;99.90;;;;;;4863390;29;20266;-86
2022/10/21 02:31:15;;;;;;;9.83;8.80;;;13.50;99.90;;;;;;4863813;29;20188;-87
2022/10/21 02:33:59;;;;;;;9.87;8.87;;;13.50;99.90;;;;;;4863514;29;20245;-86
2022/10/21 02:36:34;;;;;;;12.23;9.20;;;13.50;99.90;;;;;;4863424;29;20187;-87
2022/10/21 02:39:06;;;;;;;12.33;9.30;;;13.50;99.90;;;;;;4853859;29;20196;-86
2022/10/21 02:41:33;;;;;;;10.90;8.97;;;13.50;99.90;;;;;;4860220;29;20216;-86
2022/10/21 02:44:02;;;;;;;11.27;9.70;;;13.50;99.90;;;;;;4860547;29;20378;-87
2022/10/21 02:46:40;;;;;;;10.33;9.03;;;13.50;99.90;;;;;;4860162;29;20181;-87
2022/10/21 02:49:07;;;;;;;13.43;9.47;;;13.50;99.90;;;;;;4860014;29;20188;-86
2022/10/21 02:51:33;;;;;;;13.40;9.37;;;13.50;99.90;;;;;;4859719;29;20188;-86
2022/10/21 02:53:59;;;;;;;10.57;9.47;;;13.60;99.90;;;;;;4860045;29;20193;-86
2022/10/21 02:56:26;;;;;;;10.80;9.73;;;13.50;99.90;;;;;;4859930;29;20189;-87
2022/10/21 02:58:52;;;;;;;12.30;10.33;;;13.50;99.90;;;;;;4860189;29;20188;-86
2022/10/21 03:01:18;;;;;;;12.03;9.50;;;13.50;99.90;;;;;;4859923;29;20216;-87
2022/10/21 03:03:44;;;;;;;10.40;9.30;;;13.50;99.90;;;;;;4860057;29;20268;-86
2022/10/21 03:06:10;;;;;;;10.73;9.60;;;13.50;99.90;;;;;;4860042;29;20181;-86
2022/10/21 03:08:36;;;;;;;11.00;9.57;;;13.50;99.90;;;;;;4853339;29;20213;-86
2022/10/21 03:11:02;;;;;;;9.90;8.90;;;13.50;99.90;;;;;;4856705;29;20190;-86
2022/10/21 03:13:28;;;;;;;10.90;9.20;;;13.50;99.90;;;;;;4841073;29;20205;-86
2022/10/21 03:15:53;;;;;;;11.57;9.53;;;13.50;99.90;;;;;;4841446;29;20185;-87
2022/10/21 03:18:19;;;;;;;10.60;9.40;;;13.50;99.90;;;;;;4842182;29;20178;-86
2022/10/21 03:20:53;;;;;;;11.40;10.07;;;13.50;99.90;;;;;;4825667;29;20308;-86
2022/10/21 03:23:20;;;;;;;11.10;9.73;;;13.50;99.90;;;;;;4856564;29;20208;-86
2022/10/21 03:25:46;;;;;;;12.67;9.93;;;13.50;99.90;;;;;;4878307;29;20180;-86
2022/10/21 03:28:12;;;;;;;12.63;10.37;;;13.50;99.90;;;;;;4862220;29;20191;-86
2022/10/21 03:30:38;;;;;;;12.27;10.40;;;13.50;99.90;;;;;;4862655;29;20191;-86
2022/10/21 03:33:04;;;;;;;12.27;9.73;;;13.50;99.90;;;;;;4846614;29;20224;-87
2022/10/21 03:35:30;;;;;;;12.43;9.80;;;13.50;99.90;;;;;;4840853;29;20322;-86
2022/10/21 03:37:56;;;;;;;13.10;9.80;;;13.50;99.90;;;;;;4842437;29;20201;-86
2022/10/21 03:40:28;;;;;;;10.70;9.57;;;13.50;99.90;;;;;;4858381;29;20220;-86
2022/10/21 03:42:57;;;;;;;14.27;10.07;;;13.50;99.90;;;;;;4840808;29;20221;-88
2022/10/21 03:45:36;;;;;;;10.73;9.63;;;13.50;99.90;;;;;;4860465;29;20177;-87
2022/10/21 03:48:09;;;;;;;10.77;9.67;;;13.50;99.90;;;;;;4878341;29;20204;-87
2022/10/21 03:50:57;;;;;;;11.43;10.17;;;13.60;99.90;;;;;;4860443;29;20206;-87
2022/10/21 03:53:26;;;;;;;11.90;9.03;;;13.50;99.90;;;;;;4845069;29;20677;-87
2022/10/21 03:56:01;;;;;;;12.50;10.07;;;13.50;99.90;;;;;;4861106;29;20276;-88
2022/10/21 03:58:34;;;;;;;16.37;9.50;;;13.40;99.90;;;;;;4857240;29;20204;-87
2022/10/21 04:01:34;;;;;;;10.77;9.67;;;13.40;99.90;;;;;;4858538;29;20245;-87
2022/10/21 04:03:59;;;;;;;11.97;9.20;;;13.40;99.90;;;;;;4859178;29;20177;-87
2022/10/21 04:06:25;;;;;;;13.67;9.70;;;13.40;99.90;;;;;;4859380;29;20188;-87
2022/10/21 04:08:51;;;;;;;12.33;10.63;;;13.40;99.90;;;;;;4859012;29;20245;-87
2022/10/21 04:11:17;;;;;;;11.40;10.00;;;13.40;99.90;;;;;;4860320;29;20181;-87
2022/10/21 04:13:44;;;;;;;11.37;9.70;;;13.40;99.90;;;;;;4859368;29;20204;-88
2022/10/21 04:16:15;;;;;;;13.20;9.50;;;13.50;99.90;;;;;;4859057;29;20685;-87
2022/10/21 04:18:41;;;;;;;13.13;9.73;;;13.50;99.90;;;;;;4858357;29;20193;-87
2022/10/21 04:21:08;;;;;;;10.67;9.57;;;13.50;99.90;;;;;;4858939;29;20220;-87
2022/10/21 04:23:35;;;;;;;12.20;9.93;;;13.50;99.90;;;;;;4858947;29;20227;-87
2022/10/21 04:26:02;;;;;;;10.20;9.20;;;13.50;99.90;;;;;;4858467;29;20276;-88
2022/10/21 04:28:28;;;;;;;11.10;9.40;;;13.60;99.90;;;;;;4859414;29;20196;-87
2022/10/21 04:30:54;;;;;;;10.20;9.10;;;13.60;99.90;;;;;;4858991;29;20181;-87
2022/10/21 04:33:20;;;;;;;12.80;11.37;;;13.60;99.90;;;;;;4858923;29;20307;-87
2022/10/21 04:35:48;;;;;;;13.20;10.37;;;13.60;99.90;;;;;;4844826;29;20345;-87
2022/10/21 04:38:29;;;;;;;13.77;10.40;;;13.60;99.90;;;;;;4843262;29;20192;-87
2022/10/21 04:41:00;;;;;;;13.07;10.60;;;13.60;99.90;;;;;;4844100;29;20213;-87
2022/10/21 04:43:27;;;;;;;11.93;10.50;;;13.60;99.90;;;;;;4843852;29;20211;-87
2022/10/21 04:45:53;;;;;;;11.67;9.97;;;13.60;99.90;;;;;;4859301;29;20295;-87
2022/10/21 04:48:20;;;;;;;11.47;10.30;;;13.70;99.90;;;;;;4864453;29;20196;-87
2022/10/21 04:50:53;;;;;;;11.10;9.70;;;13.70;99.90;;;;;;4861488;29;20177;-87
2022/10/21 04:53:20;;;;;;;14.37;10.23;;;13.70;99.90;;;;;;4860037;29;20201;-84
2022/10/21 04:55:52;;;;;;;14.43;10.30;;;13.70;99.90;;;;;;4853429;29;20180;-87
2022/10/21 04:58:20;;;;;;;11.57;10.33;;;13.70;99.90;;;;;;4865645;29;20654;-87
2022/10/21 05:00:46;;;;;;;12.60;10.13;;;13.70;99.90;;;;;;4856681;29;20296;-87
2022/10/21 05:03:12;;;;;;;11.27;10.03;;;13.70;99.90;;;;;;4859622;29;20295;-87
2022/10/21 05:05:38;;;;;;;11.97;9.60;;;13.70;99.90;;;;;;4859676;29;20182;-87
2022/10/21 05:08:04;;;;;;;11.07;9.50;;;13.60;99.90;;;;;;4843988;29;20184;-87
2022/10/21 05:10:30;;;;;;;11.03;9.67;;;13.60;99.90;;;;;;4844033;29;20193;-88
2022/10/21 05:12:57;;;;;;;12.93;10.97;;;13.60;99.90;;;;;;4843670;29;20262;-87
2022/10/21 05:15:25;;;;;;;11.57;10.10;;;13.50;99.90;;;;;;4867925;29;20227;-87
2022/10/21 05:17:54;;;;;;;10.60;9.50;;;13.60;99.90;;;;;;4864578;29;20192;-87
2022/10/21 05:20:20;;;;;;;11.17;9.90;;;13.60;99.90;;;;;;4864790;29;20184;-87
2022/10/21 05:22:48;;;;;;;14.60;10.87;;;13.60;99.90;;;;;;4864884;29;20227;-87
2022/10/21 05:25:14;;;;;;;14.30;10.40;;;13.50;99.90;;;;;;4864586;29;20191;-87
2022/10/21 05:27:40;;;;;;;13.57;10.40;;;13.50;99.90;;;;;;4856535;29;20181;-90
2022/10/21 05:30:15;;;;;;;13.37;11.80;;;13.50;99.90;;;;;;4842810;29;20185;-88
2022/10/21 05:32:42;;;;;;;16.20;12.23;;;13.50;99.90;;;;;;4861003;29;20277;-88
2022/10/21 05:35:10;;;;;;;13.50;12.10;;;13.40;99.90;;;;;;4860244;29;20239;-79
2022/10/21 05:37:36;;;;;;;16.13;11.63;;;13.40;99.90;;;;;;4873642;29;20188;-88
2022/10/21 05:40:03;;;;;;;14.27;11.57;;;13.40;99.90;;;;;;4860581;29;20192;-87
2022/10/21 05:42:29;;;;;;;11.60;10.03;;;13.40;99.90;;;;;;4845160;29;20299;-87
2022/10/21 05:44:54;;;;;;;17.13;10.83;;;13.40;99.90;;;;;;4846309;29;20271;-88
2022/10/21 05:47:22;;;;;;;14.87;10.63;;;13.40;99.90;;;;;;4845744;29;20208;-88
2022/10/21 05:49:49;;;;;;;15.43;11.07;;;13.40;99.90;;;;;;4860585;29;20192;-88
2022/10/21 05:52:15;;;;;;;12.67;10.30;;;13.40;99.90;;;;;;4864561;29;20291;-88
2022/10/21 05:54:40;;;;;;;16.80;11.17;;;13.50;99.90;;;;;;4862506;29;20287;-88
2022/10/21 05:57:06;;;;;;;14.67;11.67;;;13.50;99.90;;;;;;4860741;29;20188;-88
2022/10/21 05:59:32;;;;;;;16.77;11.77;;;13.50;99.90;;;;;;4861243;29;20196;-87
2022/10/21 06:01:58;;;;;;;15.00;11.67;;;13.60;99.90;;;;;;4857447;29;20233;-88
2022/10/21 06:04:24;;;;;;;12.40;10.83;;;13.60;99.90;;;;;;4843200;29;20366;-88
2022/10/21 06:06:57;;;;;;;11.33;9.63;;;13.60;99.90;;;;;;4857894;29;20185;-94
2022/10/21 06:09:23;;;;;;;11.27;10.07;;;13.60;99.90;;;;;;4845540;29;20189;-88
2022/10/21 06:11:49;;;;;;;14.97;9.87;;;13.60;99.90;;;;;;4842620;29;20197;-88
2022/10/21 06:14:15;;;;;;;12.23;10.20;;;13.60;99.90;;;;;;4842765;29;20196;-88
2022/10/21 06:16:41;;;;;;;11.40;9.77;;;13.70;99.90;;;;;;4858529;29;20185;-86
2022/10/21 06:19:23;;;;;;;12.77;10.30;;;13.70;99.90;;;;;;4853181;29;20177;-88
2022/10/21 06:21:49;;;;;;;13.57;11.67;;;13.70;99.90;;;;;;4845649;29;20224;-87
2022/10/21 06:24:16;;;;;;;14.37;10.53;;;13.70;99.90;;;;;;4846041;29;20185;-88
2022/10/21 06:26:45;;;;;;;14.30;10.47;;;13.70;99.90;;;;;;4860787;29;20212;-88
2022/10/21 06:29:11;;;;;;;16.40;10.60;;;13.70;99.90;;;;;;4845797;29;20181;-88
2022/10/21 06:31:40;;;;;;;15.53;11.07;;;13.60;99.90;;;;;;4845760;29;20185;-88
2022/10/21 06:34:07;;;;;;;18.10;10.97;;;13.60;99.90;;;;;;4845535;29;20204;-88
2022/10/21 06:36:37;;;;;;;14.13;11.07;;;13.60;99.90;;;;;;4861431;29;20205;-88
2022/10/21 06:39:05;;;;;;;17.17;11.87;;;13.50;99.90;;;;;;4845687;29;20596;-88
2022/10/21 06:41:42;;;;;;;14.90;10.90;;;13.50;99.90;;;;;;4845492;29;20213;-88
2022/10/21 06:44:17;;;;;;;18.27;12.50;;;13.50;99.90;;;;;;4845909;29;20188;-87
2022/10/21 06:46:44;;;;;;;16.27;11.83;;;13.50;99.90;;;;;;4845235;29;20181;-87
2022/10/21 06:49:11;;;;;;;13.70;10.33;;;13.50;99.90;;;;;;4845266;29;20220;-87
2022/10/21 06:51:37;;;;;;;13.07;10.20;;;13.50;99.90;;;;;;4845408;29;20195;-88
2022/10/21 06:54:03;;;;;;;17.17;11.53;;;13.50;99.90;;;;;;4844773;29;20176;-88
2022/10/21 06:56:30;;;;;;;16.93;10.83;;;13.50;99.90;;;;;;4844964;29;20221;-87
2022/10/21 06:58:57;;;;;;;14.20;10.37;;;13.50;99.90;;;;;;4842754;29;20189;-88
2022/10/21 07:01:25;;;;;;;16.60;11.13;;;13.60;99.90;;;;;;4859943;29;20208;-88
2022/10/21 07:03:51;;;;;;;15.10;10.87;;;13.60;99.90;;;;;;4843652;29;20209;-88
2022/10/21 07:06:18;;;;;;;12.83;10.50;;;13.70;99.90;;;;;;4844334;29;20187;-87
2022/10/21 07:08:44;;;;;;;12.50;10.27;;;13.70;99.90;;;;;;4844334;29;20213;-87
2022/10/21 07:11:12;;;;;;;13.10;9.70;;;13.70;99.90;;;;;;4859724;29;20272;-87
2022/10/21 07:13:38;;;;;;;12.53;10.53;;;13.70;99.90;;;;;;4858795;29;20212;-87
2022/10/21 07:16:24;;;;;;;13.87;11.17;;;13.70;99.90;;;;;;4848698;29;20188;-87
2022/10/21 07:18:50;;;;;;;13.47;10.67;;;13.80;99.90;;;;;;4842314;29;20173;-87
2022/10/21 07:21:19;;;;;;;13.30;11.10;;;13.80;99.90;;;;;;4826657;29;20216;-87
2022/10/21 07:23:57;;;;;;;13.17;11.77;;;13.80;99.90;;;;;;4827139;29;20224;-87
2022/10/21 07:26:24;;;;;;;14.23;11.20;;;13.80;99.90;;;;;;4844634;29;20177;-87
2022/10/21 07:28:51;;;;;;;14.87;10.83;;;13.90;99.90;;;;;;4844131;29;20208;-87
2022/10/21 07:31:19;;;;;;;16.20;11.57;;;13.90;99.90;;;;;;4859365;29;20180;-87
2022/10/21 07:33:47;;;;;;;14.93;11.73;;;13.90;99.90;;;;;;4859333;29;20220;-87
2022/10/21 07:36:21;;;;;;;13.63;11.60;;;13.90;99.90;;;;;;4844095;29;20185;-88
2022/10/21 07:38:48;;;;;;;15.80;11.70;;;13.90;99.90;;;;;;4843942;29;20241;-87
2022/10/21 07:41:17;;;;;;;12.60;11.27;;;13.90;99.90;;;;;;4843951;29;20224;-88
2022/10/21 07:43:43;;;;;;;14.37;12.40;;;14.00;99.90;;;;;;4843921;29;20292;-88
2022/10/21 07:46:10;;;;;;;16.47;12.30;;;14.00;99.90;;;;;;4843593;29;20275;-87
2022/10/21 07:48:37;;;;;;;12.47;10.53;;;13.90;99.90;;;;;;4843756;29;20203;-87
2022/10/21 07:51:08;;;;;;;15.33;10.60;;;14.00;99.90;;;;;;4844339;29;20250;-88
2022/10/21 07:53:34;;;;;;;14.53;10.27;;;14.00;99.90;;;;;;4873511;29;20242;-87
2022/10/21 07:56:04;;;;;;;13.33;10.50;;;14.10;99.90;;;;;;4841538;29;20185;-87
2022/10/21 07:58:30;;;;;;;13.97;10.50;;;14.10;99.90;;;;;;4858366;29;20267;-87
2022/10/21 08:00:58;;;;;;;15.30;10.63;;;14.10;99.90;;;;;;4841322;29;20209;-87
2022/10/21 08:03:30;;;;;;;13.60;10.73;;;14.10;99.90;;;;;;4840617;29;20205;-87
2022/10/21 08:05:57;;;;;;;14.83;10.43;;;14.00;99.90;;;;;;4841021;29;20169;-87
2022/10/21 08:08:24;;;;;;;15.07;11.87;;;14.10;99.90;;;;;;4840495;29;20182;-87
2022/10/21 08:10:51;;;;;;;18.40;11.37;;;14.10;99.90;;;;;;4840701;29;20189;-87
2022/10/21 08:13:17;;;;;;;15.13;11.37;;;14.10;99.90;;;;;;4840428;29;20236;-87
2022/10/21 08:15:55;;;;;;;14.40;10.83;;;14.10;99.90;;;;;;4839798;29;20280;-87
2022/10/21 08:18:22;;;;;;;13.23;10.20;;;14.10;99.90;;;;;;4843390;29;20180;-86
2022/10/21 08:20:48;;;;;;;14.50;11.17;;;14.20;99.90;;;;;;4843620;29;20240;-87
2022/10/21 08:23:27;;;;;;;12.57;10.00;;;14.20;99.90;;;;;;4843363;29;20192;-87
2022/10/21 08:25:56;;;;;;;15.87;11.30;;;14.20;99.90;;;;;;4853494;29;20217;-87
2022/10/21 08:28:26;;;;;;;15.13;10.13;;;14.30;99.90;;;;;;4863057;29;20197;-87
2022/10/21 08:31:01;;;;;;;10.67;9.00;;;14.30;99.90;;;;;;4879258;29;20187;-87
2022/10/21 08:33:28;;;;;;;11.07;8.00;;;14.30;99.90;;;;;;4876393;29;20216;-87
2022/10/21 08:36:29;;;;;;;12.50;8.07;;;14.40;99.90;;;;;;4862626;29;20325;-87
2022/10/21 08:38:59;;;;;;;10.20;6.47;;;14.40;99.90;;;;;;4861715;29;20176;-86
2022/10/21 08:41:30;;;;;;;13.27;8.60;;;14.40;99.90;;;;;;4862527;29;20240;-87
2022/10/21 08:44:04;;;;;;;10.77;8.00;;;14.50;99.90;;;;;;4846826;29;20212;-87
2022/10/21 08:46:40;;;;;;;10.17;7.70;;;14.60;99.90;;;;;;4862170;29;20184;-86
2022/10/21 08:49:18;;;;;;;16.57;9.47;;;14.60;99.90;;;;;;4846862;29;20200;-86
2022/10/21 08:52:09;;;;;;;12.90;9.13;;;14.70;99.90;;;;;;4846920;29;20181;-86
2022/10/21 08:54:49;;;;;;;11.17;7.80;;;14.70;99.90;;;;;;4846562;29;20191;-86
2022/10/21 08:57:16;;;;;;;13.77;8.23;;;14.80;99.90;;;;;;4846508;29;20184;-86
2022/10/21 08:59:42;;;;;;;10.60;7.97;;;14.80;99.90;;;;;;4847008;29;20180;-86
2022/10/21 09:02:30;;;;;;;15.40;8.57;;;14.90;99.90;;;;;;4861688;29;20219;-86
2022/10/21 09:05:08;;;;;;;12.30;9.73;;;14.90;99.90;;;;;;4862086;29;20276;-86
2022/10/21 09:07:43;;;;;;;21.33;10.67;;;14.90;99.90;;;;;;4846690;29;20233;-86
2022/10/21 09:10:16;;;;;;;13.57;9.27;;;14.90;99.90;;;;;;4845704;29;20188;-86
2022/10/21 09:12:56;;;;;;;14.67;8.93;;;15.00;99.90;;;;;;4846018;29;20205;-87
2022/10/21 09:15:44;;;;;;;17.27;8.93;;;15.00;99.90;;;;;;4861115;29;20211;-87
2022/10/21 09:18:37;;;;;;;11.97;8.20;;;15.00;99.90;;;;;;4862816;29;20201;-86
2022/10/21 09:21:29;;;;;;;12.43;8.87;;;15.00;99.90;;;;;;4876877;29;20216;-87
2022/10/21 09:24:12;;;;;;;14.60;8.90;;;15.00;99.90;;;;;;4861178;29;20219;-87
2022/10/21 09:26:40;;;;;;;19.57;12.73;;;15.10;99.90;;;;;;4861553;29;20192;-87
2022/10/21 09:29:14;;;;;;;16.03;9.43;;;15.10;99.90;;;;;;4846390;29;20185;-86
2022/10/21 09:31:44;;;;;;;11.00;7.63;;;15.20;99.90;;;;;;4861228;29;20564;-87
2022/10/21 09:34:36;;;;;;;9.97;7.40;;;15.30;99.90;;;;;;4845901;29;20209;-87
2022/10/21 09:37:11;;;;;;;13.73;7.50;;;15.30;99.90;;;;;;4846630;29;20187;-86
2022/10/21 09:39:49;;;;;;;12.27;7.17;;;15.40;99.90;;;;;;4860120;29;20252;-87
2022/10/21 09:42:18;;;;;;;9.87;7.27;;;15.40;99.90;;;;;;4827887;29;20239;-86
2022/10/21 09:45:19;;;;;;;9.63;6.70;;;15.50;99.90;;;;;;4842531;29;20205;-87
2022/10/21 09:48:17;;;;;;;8.32;5.88;;;15.60;99.90;;;;;;4842112;29;20195;-87
2022/10/21 09:51:04;;;;;;;14.32;6.20;;;15.60;99.90;;;;;;4841866;29;20208;-86
2022/10/21 09:53:43;;;;;;;10.18;6.05;;;15.70;99.90;;;;;;4826818;29;20216;-87
2022/10/21 09:56:45;;;;;;;9.93;5.85;;;15.70;99.90;;;;;;4842435;29;20185;-86
2022/10/21 09:59:30;;;;;;;11.33;5.77;;;15.80;99.90;;;;;;4846277;29;20247;-86
2022/10/21 10:02:14;;;;;;;8.85;5.00;;;15.80;99.90;;;;;;4860222;29;20243;-86
2022/10/21 10:04:41;;;;;;;10.70;5.20;;;15.90;99.90;;;;;;4861370;29;20271;-86
2022/10/21 10:07:35;;;;;;;10.60;5.10;;;15.90;99.90;;;;;;4860449;29;20232;-86
2022/10/21 10:10:28;;;;;;;7.05;4.22;;;16.00;99.90;;;;;;4861347;29;20185;-86
2022/10/21 10:12:56;;;;;;;9.60;3.97;;;16.00;99.90;;;;;;4860761;29;20208;-86
2022/10/21 10:15:32;;;;;;;7.72;3.42;;;16.10;99.90;;;;;;4861187;29;20193;-86
2022/10/21 10:17:59;;;;;;;9.15;3.40;;;16.10;99.90;;;;;;4861112;29;20176;-86
2022/10/21 10:20:25;;;;;;;5.10;2.85;;;16.20;99.90;;;;;;4860555;29;20272;-86
2022/10/21 10:22:57;;;;;;;5.03;3.10;;;16.20;99.90;;;;;;4845174;29;20292;-86
2022/10/21 10:25:35;;;;;;;4.50;2.27;;;16.30;99.90;;;;;;4866849;29;20187;-86
2022/10/21 10:28:18;;;;;;;5.90;2.85;;;16.40;99.90;;;;;;4878796;29;20240;-86
2022/10/21 10:30:51;;;;;;;5.22;2.90;;;16.40;99.90;;;;;;4863682;29;20236;-86
2022/10/21 10:33:27;;;;;;;4.25;2.38;;;16.50;99.90;;;;;;4861480;29;20240;-86
2022/10/21 10:35:59;;;;;;;3.92;2.42;;;16.50;99.90;;;;;;4860410;29;20189;-86
2022/10/21 10:38:32;;;;;;;3.33;2.20;;;16.50;99.90;;;;;;4844973;29;20268;-86
2022/10/21 10:41:16;;;;;;;3.90;2.05;;;16.50;99.90;;;;;;4860443;29;20220;-86
2022/10/21 10:43:53;;;;;;;3.33;2.10;;;16.50;99.90;;;;;;4860372;29;20209;-86
2022/10/21 10:46:32;;;;;;;3.27;1.90;;;16.40;99.90;;;;;;4860660;29;20259;-86
2022/10/21 10:49:22;;;;;;;5.10;2.05;;;16.40;99.90;;;;;;4826877;29;20173;-86
2022/10/21 10:52:13;;;;;;;4.60;2.20;;;16.50;99.90;;;;;;4841538;29;20184;-86
2022/10/21 10:54:41;;;;;;;3.78;2.30;;;16.50;99.90;;;;;;4826818;29;20177;-86
2022/10/21 10:57:25;;;;;;;4.18;2.08;;;16.50;99.90;;;;;;4826718;29;20186;-86
2022/10/21 11:00:08;;;;;;;5.60;2.63;;;16.50;99.90;;;;;;4834208;29;20212;-86
2022/10/21 11:02:47;;;;;;;3.92;2.70;;;16.60;99.90;;;;;;4858658;29;20272;-86
2022/10/21 11:05:43;;;;;;;5.72;3.47;;;16.60;99.90;;;;;;4860261;29;20181;-86
2022/10/21 11:08:09;;;;;;;6.20;3.97;;;16.70;99.90;;;;;;4859599;29;20191;-86
2022/10/21 11:11:11;;;;;;;5.45;3.13;;;16.70;99.90;;;;;;4860210;29;20189;-86
2022/10/21 11:13:39;;;;;;;3.35;2.10;;;16.70;99.90;;;;;;4856431;29;20212;-86
2022/10/21 11:16:41;;;;;;;4.30;2.08;;;16.70;99.90;;;;;;4859770;29;20192;-86
2022/10/21 11:19:27;;;;;;;2.10;1.85;;;16.70;99.90;;;;;;4858917;29;20196;-86
2022/10/21 11:22:02;;;;;;;4.10;2.55;;;16.70;99.90;;;;;;4858952;29;20272;-86
2022/10/21 11:24:44;;;;;;;2.03;1.50;;;16.70;99.90;;;;;;4858689;29;20256;-86
2022/10/21 11:27:38;;;;;;;3.00;1.90;;;16.80;99.90;;;;;;4858994;29;20280;-86
2022/10/21 11:30:22;;;;;;;3.55;1.60;;;16.80;99.90;;;;;;4859751;29;20188;-86
2022/10/21 11:33:17;;;;;;;3.33;1.98;;;17.00;99.90;;;;;;4859840;29;20298;-86
2022/10/21 11:36:04;;;;;;;3.38;1.80;;;17.00;99.90;;;;;;4859679;29;20323;-86
2022/10/21 11:38:39;;;;;;;4.85;1.70;;;17.10;99.90;;;;;;4859404;29;20274;-86
2022/10/21 11:41:29;;;;;;;2.42;1.92;;;17.10;99.90;;;;;;4875303;29;20235;-86
2022/10/21 11:44:20;;;;;;;1.98;1.60;;;17.20;99.90;;;;;;4859732;29;20212;-86
2022/10/21 11:47:24;;;;;;;1.75;1.40;;;17.20;99.90;;;;;;4860975;29;20248;-87
2022/10/21 11:50:19;;;;;;;3.03;2.03;;;17.30;99.90;;;;;;4838688;29;20273;-87
2022/10/21 11:53:20;;;;;;;2.25;1.92;;;17.30;99.90;;;;;;4837217;29;20244;-87
2022/10/21 11:56:01;;;;;;;2.90;2.00;;;17.40;99.90;;;;;;4828548;29;20188;-87
2022/10/21 11:59:08;;;;;;;2.15;1.50;;;17.40;99.90;;;;;;4859859;29;20191;-87
2022/10/21 12:01:58;;;;;;;3.08;1.40;;;17.40;99.90;;;;;;4859758;29;20212;-87
2022/10/21 12:05:06;;;;;;;2.17;1.27;;;17.40;99.90;;;;;;4859971;29;20631;-87
2022/10/21 12:07:45;;;;;;;3.05;1.67;;;17.40;99.90;;;;;;4880434;29;20191;-87
2022/10/21 12:10:33;;;;;;;2.22;1.38;;;17.40;99.90;;;;;;4866393;29;20176;-87
2022/10/21 12:13:26;;;;;;;2.45;1.30;;;17.30;99.90;;;;;;4866356;29;20200;-87
2022/10/21 12:16:10;;;;;;;2.08;1.35;;;17.20;99.90;;;;;;4863694;29;20274;-87
2022/10/21 12:18:54;;;;;;;2.60;1.50;;;17.10;99.90;;;;;;4866211;29;20191;-87
2022/10/21 12:21:24;;;;;;;2.42;1.40;;;17.10;99.90;;;;;;4844686;29;20307;-87
2022/10/21 12:24:04;;;;;;;4.25;1.77;;;17.10;99.90;;;;;;4841785;29;20208;-87
2022/10/21 12:26:58;;;;;;;3.55;1.40;;;17.10;99.90;;;;;;4861315;29;20177;-88
2022/10/21 12:30:07;;;;;;;2.92;1.67;;;17.10;99.90;;;;;;4847813;29;20279;-87
2022/10/21 12:33:03;;;;;;;3.88;1.67;;;17.10;99.90;;;;;;4862623;29;20713;-87
2022/10/21 12:35:49;;;;;;;3.67;1.60;;;17.10;99.90;;;;;;4862664;29;20200;-87
2022/10/21 12:38:20;;;;;;;1.30;0.98;;;17.10;99.90;;;;;;4865146;29;20192;-87
2022/10/21 12:40:47;;;;;;;3.80;1.30;;;17.20;99.90;;;;;;4865693;29;20227;-86
2022/10/21 12:43:27;;;;;;;2.13;1.27;;;17.10;99.90;;;;;;4856161;29;20203;-87
2022/10/21 12:46:10;;;;;;;2.72;1.50;;;17.10;99.90;;;;;;4847426;29;20204;-87
2022/10/21 12:48:43;;;;;;;2.05;1.40;;;17.20;99.90;;;;;;4847114;29;20199;-87
2022/10/21 12:51:30;;;;;;;3.28;1.88;;;17.20;99.90;;;;;;4862065;29;20203;-87
2022/10/21 12:54:02;;;;;;;3.30;1.88;;;17.20;99.90;;;;;;4857957;29;20215;-86
2022/10/21 12:56:47;;;;;;;3.60;1.65;;;17.20;99.90;;;;;;4875620;29;20204;-87
2022/10/21 12:59:37;;;;;;;2.42;1.60;;;17.30;99.90;;;;;;4845704;29;20184;-87
2022/10/21 13:02:03;;;;;;;2.08;1.23;;;17.30;99.90;;;;;;4844236;29;20217;-86
2022/10/21 13:05:06;;;;;;;2.15;1.23;;;17.30;99.90;;;;;;4847566;29;20180;-87
2022/10/21 13:07:34;;;;;;;4.10;1.38;;;17.20;99.90;;;;;;4844286;29;20240;-87
2022/10/21 13:09:59;;;;;;;2.58;1.40;;;17.10;99.90;;;;;;4858223;29;20203;-87
2022/10/21 13:12:30;;;;;;;3.05;1.40;;;17.00;99.90;;;;;;4846997;29;20210;-87